createdAt,value
2018-08-19T00:00:30.248Z,51.80
2018-08-19T00:03:00.977Z,51.80
2018-08-19T00:05:29.858Z,51.80
2018-08-19T00:07:58.480Z,51.70
2018-08-19T00:10:42.180Z,51.80
2018-08-19T00:13:12.737Z,52.00
2018-08-19T00:15:41.913Z,51.80
2018-08-19T00:18:12.165Z,51.90
2018-08-19T00:20:40.809Z,52.00
2018-08-19T00:23:10.035Z,51.90
2018-08-19T00:25:41.250Z,52.00
2018-08-19T00:28:11.410Z,52.10
2018-08-19T00:30:40.016Z,52.10
2018-08-19T00:33:08.662Z,52.10
2018-08-19T00:35:37.260Z,52.30
2018-08-19T00:38:08.446Z,52.40
2018-08-19T00:40:36.957Z,52.40
2018-08-19T00:43:05.643Z,52.60
2018-08-19T00:45:34.171Z,52.50
2018-08-19T00:48:02.795Z,52.60
2018-08-19T00:50:31.368Z,52.60
2018-08-19T00:52:59.921Z,52.60
2018-08-19T00:55:36.469Z,52.70
2018-08-19T00:58:13.331Z,52.60
2018-08-19T01:00:41.931Z,52.70
2018-08-19T01:03:11.081Z,52.80
2018-08-19T01:05:39.924Z,52.90
2018-08-19T01:08:09.953Z,53.00
2018-08-19T01:10:38.716Z,52.90
2018-08-19T01:13:07.650Z,52.90
2018-08-19T01:15:36.265Z,53.10
2018-08-19T01:18:05.141Z,53.10
2018-08-19T01:20:33.781Z,53.00
2018-08-19T01:23:02.381Z,53.10
2018-08-19T01:25:30.978Z,53.10
2018-08-19T01:27:59.609Z,53.10
2018-08-19T01:30:28.125Z,53.10
2018-08-19T01:32:56.702Z,53.20
2018-08-19T01:35:30.494Z,53.30
2018-08-19T01:37:59.125Z,53.30
2018-08-19T01:40:27.638Z,53.30
2018-08-19T01:42:56.194Z,53.30
2018-08-19T01:45:24.733Z,53.30
2018-08-19T01:47:53.432Z,54.00
2018-08-19T01:50:21.960Z,53.40
2018-08-19T01:52:51.096Z,53.40
2018-08-19T01:55:20.128Z,53.50
2018-08-19T01:57:50.111Z,53.50
2018-08-19T02:00:19.422Z,53.50
2018-08-19T02:03:00.786Z,53.60
2018-08-19T02:05:29.367Z,53.70
2018-08-19T02:07:59.803Z,53.70
2018-08-19T02:10:29.450Z,53.80
2018-08-19T02:12:58.703Z,53.80
2018-08-19T02:15:28.438Z,53.80
2018-08-19T02:17:58.227Z,53.80
2018-08-19T02:20:45.235Z,53.90
2018-08-19T02:23:13.938Z,53.90
2018-08-19T02:25:45.566Z,53.90
2018-08-19T02:28:16.679Z,54.00
2018-08-19T02:30:51.953Z,54.10
2018-08-19T02:33:21.501Z,54.10
2018-08-19T02:35:55.118Z,54.80
2018-08-19T02:38:24.073Z,54.30
2018-08-19T02:40:53.438Z,54.30
2018-08-19T02:43:22.261Z,54.40
2018-08-19T02:45:51.021Z,54.50
2018-08-19T02:48:27.447Z,54.50
2018-08-19T02:50:56.022Z,54.80
2018-08-19T02:53:24.529Z,54.50
2018-08-19T02:55:53.086Z,54.60
2018-08-19T02:58:21.643Z,54.60
2018-08-19T03:00:52.337Z,54.60
2018-08-19T03:03:20.860Z,54.60
2018-08-19T03:05:54.694Z,55.40
2018-08-19T03:08:23.256Z,54.80
2018-08-19T03:10:51.792Z,54.80
2018-08-19T03:13:20.314Z,54.90
2018-08-19T03:15:48.958Z,55.00
2018-08-19T03:18:17.534Z,55.00
2018-08-19T03:20:46.073Z,55.00
2018-08-19T03:23:14.574Z,55.10
2018-08-19T03:25:43.077Z,55.20
2018-08-19T03:28:11.575Z,55.20
2018-08-19T03:30:45.925Z,55.30
2018-08-19T03:33:14.402Z,55.30
2018-08-19T03:35:42.923Z,55.50
2018-08-19T03:38:14.806Z,55.50
2018-08-19T03:40:43.323Z,55.50
2018-08-19T03:43:12.284Z,55.50
2018-08-19T03:45:40.798Z,55.50
2018-08-19T03:48:09.291Z,55.60
2018-08-19T03:50:38.525Z,56.10
2018-08-19T03:53:07.014Z,55.60
2018-08-19T03:55:38.178Z,55.50
2018-08-19T03:58:08.979Z,55.50
2018-08-19T04:00:38.533Z,55.60
2018-08-19T04:03:15.757Z,55.60
2018-08-19T04:05:49.578Z,55.70
2018-08-19T04:08:18.055Z,55.60
2018-08-19T04:10:47.397Z,55.60
2018-08-19T04:13:29.359Z,55.60
2018-08-19T04:15:59.014Z,55.80
2018-08-19T04:18:36.103Z,55.80
2018-08-19T04:21:07.926Z,55.80
2018-08-19T04:23:37.092Z,55.80
2018-08-19T04:26:05.787Z,55.90
2018-08-19T04:28:37.970Z,56.00
2018-08-19T04:31:25.010Z,56.10
2018-08-19T04:33:54.318Z,56.20
2018-08-19T04:36:24.138Z,56.20
2018-08-19T04:38:52.618Z,56.30
2018-08-19T04:41:21.119Z,56.40
2018-08-19T04:43:49.642Z,56.50
2018-08-19T04:46:18.186Z,56.50
2018-08-19T04:48:47.846Z,56.60
2018-08-19T04:51:16.547Z,56.70
2018-08-19T04:53:45.101Z,56.80
2018-08-19T04:56:13.603Z,56.90
2018-08-19T04:58:42.093Z,56.90
2018-08-19T05:01:12.337Z,56.90
2018-08-19T05:03:43.402Z,57.00
2018-08-19T05:06:11.921Z,57.10
2018-08-19T05:08:40.485Z,57.80
2018-08-19T05:11:09.428Z,57.30
2018-08-19T05:13:37.907Z,57.40
2018-08-19T05:16:06.537Z,57.50
2018-08-19T05:18:35.015Z,57.50
2018-08-19T05:21:08.769Z,57.60
2018-08-19T05:23:37.279Z,57.80
2018-08-19T05:26:05.847Z,57.80
2018-08-19T05:28:34.524Z,57.80
2018-08-19T05:31:03.048Z,58.00
2018-08-19T05:33:31.677Z,58.00
2018-08-19T05:36:00.205Z,58.10
2018-08-19T05:38:31.318Z,58.20
2018-08-19T05:41:01.151Z,58.20
2018-08-19T05:43:30.438Z,58.30
2018-08-19T05:46:00.464Z,58.40
2018-08-19T05:48:29.142Z,58.50
2018-08-19T05:50:58.112Z,58.60
2018-08-19T05:53:26.684Z,58.60
2018-08-19T05:55:55.248Z,58.60
2018-08-19T05:58:23.834Z,58.80
2018-08-19T06:00:55.072Z,58.90
2018-08-19T06:03:23.575Z,59.50
2018-08-19T06:05:52.110Z,59.00
2018-08-19T06:08:20.657Z,59.10
2018-08-19T06:10:49.260Z,59.00
2018-08-19T06:13:17.796Z,59.10
2018-08-19T06:15:46.430Z,59.20
2018-08-19T06:18:14.989Z,59.90
2018-08-19T06:20:43.510Z,59.40
2018-08-19T06:23:12.162Z,59.40
2018-08-19T06:25:40.681Z,59.50
2018-08-19T06:28:09.238Z,59.50
2018-08-19T06:30:37.832Z,59.60
2018-08-19T06:33:06.395Z,59.70
2018-08-19T06:35:34.920Z,59.70
2018-08-19T06:38:03.521Z,59.90
2018-08-19T06:40:32.085Z,59.90
2018-08-19T06:43:00.703Z,60.00
2018-08-19T06:45:29.221Z,60.00
2018-08-19T06:47:57.856Z,60.00
2018-08-19T06:50:28.818Z,60.10
2018-08-19T06:52:57.515Z,60.10
2018-08-19T06:55:26.273Z,60.10
2018-08-19T06:57:56.931Z,60.10
2018-08-19T07:00:28.321Z,60.10
2018-08-19T07:03:04.183Z,60.20
2018-08-19T07:05:33.484Z,60.30
2018-08-19T07:08:02.481Z,60.30
2018-08-19T07:10:35.531Z,60.20
2018-08-19T07:13:06.312Z,60.30
2018-08-19T07:15:36.286Z,60.30
2018-08-19T07:18:05.522Z,60.20
2018-08-19T07:20:34.338Z,60.30
2018-08-19T07:23:02.929Z,60.50
2018-08-19T07:25:31.469Z,60.40
2018-08-19T07:27:59.965Z,60.40
2018-08-19T07:30:28.459Z,60.40
2018-08-19T07:32:56.981Z,60.40
2018-08-19T07:35:25.469Z,60.50
2018-08-19T07:37:53.990Z,60.60
2018-08-19T07:40:22.554Z,60.70
2018-08-19T07:42:51.062Z,60.80
2018-08-19T07:45:19.663Z,60.80
2018-08-19T07:47:48.197Z,60.90
2018-08-19T07:50:16.688Z,60.90
2018-08-19T07:52:45.228Z,60.90
2018-08-19T07:55:13.766Z,60.90
2018-08-19T07:57:43.058Z,61.00
2018-08-19T08:00:12.467Z,60.90
2018-08-19T08:02:41.004Z,61.00
2018-08-19T08:05:10.974Z,61.10
2018-08-19T08:07:50.110Z,61.10
2018-08-19T08:10:18.654Z,61.20
2018-08-19T08:12:54.365Z,61.20
2018-08-19T08:15:23.230Z,61.30
2018-08-19T08:17:51.827Z,61.40
2018-08-19T08:20:20.382Z,61.30
2018-08-19T08:22:48.898Z,61.30
2018-08-19T08:25:17.461Z,61.30
2018-08-19T08:27:45.959Z,61.30
2018-08-19T08:30:14.531Z,61.30
2018-08-19T08:32:45.775Z,61.20
2018-08-19T08:35:14.303Z,61.10
2018-08-19T08:37:43.239Z,61.10
2018-08-19T08:40:12.326Z,61.10
2018-08-19T08:42:42.247Z,61.20
2018-08-19T08:45:12.299Z,61.20
2018-08-19T08:47:41.269Z,61.10
2018-08-19T08:50:11.188Z,61.20
2018-08-19T08:52:42.261Z,61.10
2018-08-19T08:55:12.077Z,61.20
2018-08-19T08:57:40.571Z,61.90
2018-08-19T09:00:10.346Z,61.70
2018-08-19T09:02:38.857Z,60.90
2018-08-19T09:05:10.582Z,60.90
2018-08-19T09:07:39.969Z,61.00
2018-08-19T09:10:09.233Z,61.00
2018-08-19T09:12:45.822Z,60.90
2018-08-19T09:15:14.508Z,60.80
2018-08-19T09:17:43.029Z,60.90
2018-08-19T09:20:12.137Z,60.90
2018-08-19T09:22:40.666Z,60.90
2018-08-19T09:25:10.141Z,61.00
2018-08-19T09:27:39.309Z,61.00
2018-08-19T09:30:09.245Z,61.00
2018-08-19T09:32:55.245Z,60.90
2018-08-19T09:35:23.749Z,60.80
2018-08-19T09:37:57.588Z,60.90
2018-08-19T09:40:27.025Z,60.80
2018-08-19T09:42:56.454Z,60.70
2018-08-19T09:45:24.996Z,60.70
2018-08-19T09:47:53.700Z,60.60
2018-08-19T09:50:22.039Z,60.70
2018-08-19T09:52:50.523Z,60.50
2018-08-19T09:55:27.329Z,60.30
2018-08-19T09:57:56.824Z,60.10
2018-08-19T10:00:26.714Z,59.90
2018-08-19T10:02:55.452Z,59.40
2018-08-19T10:05:25.359Z,59.10
2018-08-19T10:07:55.547Z,59.10
2018-08-19T10:10:25.101Z,58.90
2018-08-19T10:12:53.762Z,58.70
2018-08-19T10:15:22.305Z,58.50
2018-08-19T10:17:50.797Z,58.50
2018-08-19T10:20:19.333Z,58.40
2018-08-19T10:22:47.901Z,58.20
2018-08-19T10:25:18.849Z,57.90
2018-08-19T10:27:49.900Z,57.80
2018-08-19T10:30:19.392Z,57.60
2018-08-19T10:32:59.158Z,57.50
2018-08-19T10:35:29.369Z,57.20
2018-08-19T10:37:58.348Z,57.10
2018-08-19T10:40:27.162Z,56.40
2018-08-19T10:43:05.329Z,56.30
2018-08-19T10:45:37.160Z,56.10
2018-08-19T10:48:07.658Z,55.40
2018-08-19T10:50:36.238Z,55.80
2018-08-19T10:53:13.037Z,55.20
2018-08-19T10:55:41.669Z,55.00
2018-08-19T10:58:10.228Z,54.90
2018-08-19T11:00:38.774Z,54.50
2018-08-19T11:03:16.600Z,54.40
2018-08-19T11:05:46.262Z,54.10
2018-08-19T11:08:14.817Z,54.20
2018-08-19T11:10:43.405Z,54.10
2018-08-19T11:13:11.974Z,54.40
2018-08-19T11:15:46.139Z,55.10
2018-08-19T11:18:25.790Z,55.90
2018-08-19T11:21:00.125Z,56.30
2018-08-19T11:23:28.960Z,56.60
2018-08-19T11:25:58.399Z,57.00
2018-08-19T11:28:36.469Z,57.00
2018-08-19T11:31:05.393Z,56.60
2018-08-19T11:33:39.505Z,55.50
2018-08-19T11:36:09.105Z,54.20
2018-08-19T11:38:38.391Z,53.30
2018-08-19T11:41:08.682Z,52.40
2018-08-19T11:43:39.726Z,51.70
2018-08-19T11:46:09.290Z,52.50
2018-08-19T11:48:38.598Z,52.20
2018-08-19T11:51:07.416Z,52.10
2018-08-19T11:53:36.161Z,52.10
2018-08-19T11:56:04.861Z,52.10
2018-08-19T11:58:41.893Z,52.10
2018-08-19T12:01:15.725Z,52.50
2018-08-19T12:03:56.822Z,51.20
2018-08-19T12:06:26.671Z,51.90
2018-08-19T12:08:56.650Z,51.50
2018-08-19T12:11:29.283Z,51.80
2018-08-19T12:13:57.974Z,51.80
2018-08-19T12:16:27.607Z,51.50
2018-08-19T12:19:00.374Z,51.30
2018-08-19T12:21:30.158Z,51.10
2018-08-19T12:24:14.951Z,50.80
2018-08-19T12:26:43.880Z,50.20
2018-08-19T12:29:12.877Z,50.90
2018-08-19T12:31:41.369Z,51.00
2018-08-19T12:34:09.882Z,51.00
2018-08-19T12:36:38.398Z,50.70
2018-08-19T12:39:08.945Z,51.30
2018-08-19T12:41:41.555Z,51.50
2018-08-19T12:44:10.110Z,51.50
2018-08-19T12:46:38.588Z,51.50
2018-08-19T12:49:07.118Z,51.60
2018-08-19T12:51:35.621Z,51.80
2018-08-19T12:54:04.673Z,51.50
2018-08-19T12:56:33.179Z,51.60
2018-08-19T12:59:01.707Z,51.40
2018-08-19T13:01:30.282Z,50.90
2018-08-19T13:03:58.783Z,51.00
2018-08-19T13:06:27.267Z,51.10
2018-08-19T13:08:55.772Z,51.70
2018-08-19T13:11:24.314Z,51.00
2018-08-19T13:13:52.875Z,50.80
2018-08-19T13:16:21.547Z,50.80
2018-08-19T13:18:50.106Z,50.40
2018-08-19T13:21:19.078Z,50.70
2018-08-19T13:23:47.655Z,50.50
2018-08-19T13:26:16.546Z,50.40
2018-08-19T13:28:54.981Z,50.00
2018-08-19T13:31:30.953Z,50.40
2018-08-19T13:33:59.515Z,50.50
2018-08-19T13:36:28.290Z,50.50
2018-08-19T13:38:56.842Z,50.30
2018-08-19T13:41:25.429Z,50.40
2018-08-19T13:43:54.830Z,50.10
2018-08-19T13:46:23.442Z,49.80
2018-08-19T13:48:52.102Z,50.10
2018-08-19T13:51:20.641Z,50.10
2018-08-19T13:53:49.181Z,50.40
2018-08-19T13:56:17.718Z,50.20
2018-08-19T13:58:46.261Z,49.90
2018-08-19T14:01:14.857Z,50.00
2018-08-19T14:03:43.405Z,50.20
2018-08-19T14:06:11.938Z,50.10
2018-08-19T14:08:40.466Z,50.10
2018-08-19T14:11:09.040Z,50.00
2018-08-19T14:13:37.554Z,50.00
2018-08-19T14:16:06.134Z,49.80
2018-08-19T14:18:34.654Z,49.70
2018-08-19T14:21:03.200Z,49.80
2018-08-19T14:23:31.706Z,49.90
2018-08-19T14:26:00.233Z,49.80
2018-08-19T14:28:28.720Z,49.80
2018-08-19T14:30:57.261Z,49.90
2018-08-19T14:33:25.753Z,50.10
2018-08-19T14:35:54.254Z,50.10
2018-08-19T14:38:22.774Z,50.30
2018-08-19T14:40:51.273Z,50.10
2018-08-19T14:43:19.761Z,50.00
2018-08-19T14:45:48.266Z,49.30
2018-08-19T14:48:16.789Z,49.40
2018-08-19T14:50:45.348Z,49.00
2018-08-19T14:53:13.829Z,44.90
2018-08-19T14:55:42.380Z,46.20
2018-08-19T14:58:10.841Z,46.60
2018-08-19T15:00:39.345Z,47.60
2018-08-19T15:03:08.326Z,48.30
2018-08-19T15:05:36.875Z,48.30
2018-08-19T15:08:12.521Z,48.10
2018-08-19T15:10:41.674Z,46.30
2018-08-19T15:13:10.172Z,42.70
2018-08-19T15:15:39.039Z,41.70
2018-08-19T15:18:07.606Z,41.90
2018-08-19T15:20:36.990Z,41.00
2018-08-19T15:23:15.167Z,40.80
2018-08-19T15:25:44.474Z,40.70
2018-08-19T15:28:13.232Z,40.70
2018-08-19T15:30:42.568Z,40.70
2018-08-19T15:33:12.310Z,40.80
2018-08-19T15:35:41.157Z,40.80
2018-08-19T15:38:10.352Z,40.80
2018-08-19T15:40:43.020Z,40.80
2018-08-19T15:43:12.606Z,39.30
2018-08-19T15:45:41.838Z,40.70
2018-08-19T15:48:10.428Z,39.50
2018-08-19T15:50:39.009Z,39.90
2018-08-19T15:53:08.689Z,40.20
2018-08-19T15:55:38.053Z,39.30
2018-08-19T15:58:06.826Z,39.00
2018-08-19T16:00:38.275Z,39.10
2018-08-19T16:03:07.676Z,39.30
2018-08-19T16:05:36.234Z,39.30
2018-08-19T16:08:05.579Z,39.50
2018-08-19T16:10:34.182Z,39.70
2018-08-19T16:13:07.815Z,39.90
2018-08-19T16:15:36.401Z,40.10
2018-08-19T16:18:05.418Z,40.10
2018-08-19T16:20:33.963Z,40.30
2018-08-19T16:23:02.533Z,40.30
2018-08-19T16:25:31.142Z,40.20
2018-08-19T16:27:59.840Z,40.30
2018-08-19T16:30:28.413Z,40.50
2018-08-19T16:32:56.975Z,40.60
2018-08-19T16:35:25.511Z,40.60
2018-08-19T16:37:54.050Z,40.60
2018-08-19T16:40:22.578Z,40.70
2018-08-19T16:42:54.654Z,40.70
2018-08-19T16:45:23.194Z,40.80
2018-08-19T16:47:51.902Z,40.70
2018-08-19T16:50:20.522Z,40.70
2018-08-19T16:52:49.250Z,40.60
2018-08-19T16:55:17.951Z,40.80
2018-08-19T16:57:46.553Z,40.70
2018-08-19T17:00:15.103Z,41.40
2018-08-19T17:02:43.677Z,40.80
2018-08-19T17:05:29.383Z,40.80
2018-08-19T17:07:58.094Z,41.10
2018-08-19T17:10:27.982Z,41.40
2018-08-19T17:12:57.199Z,41.50
2018-08-19T17:15:26.177Z,41.60
2018-08-19T17:17:54.726Z,41.90
2018-08-19T17:20:23.277Z,42.00
2018-08-19T17:22:51.816Z,42.70
2018-08-19T17:25:20.362Z,42.40
2018-08-19T17:27:48.906Z,42.70
2018-08-19T17:30:18.235Z,42.90
2018-08-19T17:32:50.432Z,43.10
2018-08-19T17:35:18.910Z,43.30
2018-08-19T17:37:47.459Z,43.50
2018-08-19T17:40:15.979Z,43.60
2018-08-19T17:42:44.577Z,43.80
2018-08-19T17:45:13.131Z,44.00
2018-08-19T17:47:41.673Z,44.20
2018-08-19T17:50:13.367Z,44.30
2018-08-19T17:52:41.965Z,44.50
2018-08-19T17:55:10.489Z,44.60
2018-08-19T17:57:39.036Z,44.80
2018-08-19T18:00:07.643Z,44.80
2018-08-19T18:02:36.159Z,45.00
2018-08-19T18:05:04.755Z,45.10
2018-08-19T18:07:33.318Z,45.20
2018-08-19T18:10:01.844Z,45.40
2018-08-19T18:12:30.430Z,45.50
2018-08-19T18:14:59.432Z,45.50
2018-08-19T18:17:27.989Z,45.60
2018-08-19T18:19:56.508Z,45.80
2018-08-19T18:22:25.067Z,45.90
2018-08-19T18:24:59.062Z,46.20
2018-08-19T18:27:27.630Z,46.30
2018-08-19T18:29:56.145Z,46.40
2018-08-19T18:32:24.698Z,46.50
2018-08-19T18:34:53.225Z,46.60
2018-08-19T18:37:21.797Z,46.80
2018-08-19T18:39:50.313Z,46.90
2018-08-19T18:42:33.826Z,47.70
2018-08-19T18:45:06.585Z,47.20
2018-08-19T18:47:35.478Z,47.20
2018-08-19T18:50:08.730Z,47.30
2018-08-19T18:52:37.283Z,47.40
2018-08-19T18:55:06.881Z,47.40
2018-08-19T18:57:37.953Z,47.50
2018-08-19T19:00:07.028Z,47.60
2018-08-19T19:02:35.574Z,47.60
2018-08-19T19:05:05.016Z,47.70
2018-08-19T19:07:33.554Z,47.80
2018-08-19T19:10:02.257Z,47.90
2018-08-19T19:12:30.822Z,47.90
2018-08-19T19:14:59.392Z,48.00
2018-08-19T19:17:27.906Z,48.00
2018-08-19T19:19:56.527Z,48.10
2018-08-19T19:22:25.034Z,48.20
2018-08-19T19:24:53.638Z,48.10
2018-08-19T19:27:22.185Z,48.30
2018-08-19T19:29:56.017Z,48.40
2018-08-19T19:32:25.222Z,48.50
2018-08-19T19:34:53.865Z,48.40
2018-08-19T19:37:22.608Z,48.30
2018-08-19T19:40:00.715Z,48.40
2018-08-19T19:42:29.275Z,48.50
2018-08-19T19:44:57.792Z,48.50
2018-08-19T19:47:26.313Z,48.60
2018-08-19T19:49:57.322Z,48.60
2018-08-19T19:52:25.927Z,48.70
2018-08-19T19:54:54.486Z,48.70
2018-08-19T19:57:23.259Z,48.70
2018-08-19T19:59:51.810Z,48.80
2018-08-19T20:02:25.755Z,48.90
2018-08-19T20:04:54.340Z,48.90
2018-08-19T20:07:22.869Z,48.90
2018-08-19T20:09:51.430Z,49.00
2018-08-19T20:12:25.314Z,49.00
2018-08-19T20:14:54.670Z,49.10
2018-08-19T20:17:23.264Z,49.20
2018-08-19T20:19:52.101Z,49.40
2018-08-19T20:22:20.685Z,49.30
2018-08-19T20:24:49.262Z,49.40
2018-08-19T20:27:17.931Z,49.50
2018-08-19T20:29:50.374Z,49.50
2018-08-19T20:32:18.855Z,49.60
2018-08-19T20:34:47.999Z,49.80
2018-08-19T20:37:19.121Z,49.80
2018-08-19T20:39:47.649Z,49.90
2018-08-19T20:42:16.218Z,49.90
2018-08-19T20:44:44.749Z,50.00
2018-08-19T20:47:13.290Z,50.10
2018-08-19T20:49:41.805Z,50.70
2018-08-19T20:52:10.301Z,50.20
2018-08-19T20:54:38.829Z,50.30
2018-08-19T20:57:07.342Z,50.40
2018-08-19T20:59:37.064Z,50.50
2018-08-19T21:02:07.133Z,50.50
2018-08-19T21:04:36.123Z,50.50
2018-08-19T21:07:05.870Z,50.50
2018-08-19T21:09:35.756Z,50.60
2018-08-19T21:12:04.574Z,50.60
2018-08-19T21:14:33.546Z,50.70
2018-08-19T21:17:05.222Z,50.70
2018-08-19T21:19:34.581Z,50.80
2018-08-19T21:22:03.353Z,50.80
2018-08-19T21:24:32.287Z,50.90
2018-08-19T21:27:02.128Z,51.00
2018-08-19T21:29:31.204Z,51.00
2018-08-19T21:31:59.985Z,51.10
2018-08-19T21:34:29.066Z,51.10
2018-08-19T21:36:58.391Z,51.20
2018-08-19T21:39:27.070Z,51.30
2018-08-19T21:41:55.993Z,51.40
2018-08-19T21:44:24.740Z,51.40
2018-08-19T21:46:53.271Z,51.50
2018-08-19T21:49:21.754Z,51.50
2018-08-19T21:51:50.518Z,51.70
2018-08-19T21:54:19.013Z,51.60
2018-08-19T21:56:47.522Z,51.70
2018-08-19T21:59:21.375Z,51.70
2018-08-19T22:01:53.098Z,51.80
2018-08-19T22:04:22.731Z,51.80
2018-08-19T22:06:51.359Z,52.00
2018-08-19T22:09:29.942Z,51.90
2018-08-19T22:11:59.723Z,52.00
2018-08-19T22:14:28.742Z,52.10
2018-08-19T22:17:02.325Z,52.20
2018-08-19T22:19:31.273Z,52.10
2018-08-19T22:21:59.801Z,52.20
2018-08-19T22:24:28.529Z,52.30
2018-08-19T22:27:08.798Z,52.40
2018-08-19T22:29:37.459Z,52.40
2018-08-19T22:32:06.065Z,52.50
2018-08-19T22:34:34.601Z,52.50
2018-08-19T22:37:03.392Z,52.50
2018-08-19T22:39:31.985Z,52.60
2018-08-19T22:42:00.544Z,52.70
2018-08-19T22:44:29.102Z,52.70
2018-08-19T22:46:57.701Z,53.00
2018-08-19T22:49:27.782Z,52.80
2018-08-19T22:52:03.647Z,52.80
2018-08-19T22:54:32.161Z,52.80
2018-08-19T22:57:00.722Z,52.90
2018-08-19T22:59:29.343Z,52.90
2018-08-19T23:01:58.339Z,52.90
2018-08-19T23:04:26.850Z,53.00
2018-08-19T23:06:55.393Z,53.10
2018-08-19T23:09:23.898Z,53.10
2018-08-19T23:11:52.432Z,53.00
2018-08-19T23:14:32.160Z,53.00
2018-08-19T23:17:00.707Z,53.00
2018-08-19T23:19:29.227Z,53.00
2018-08-19T23:21:57.789Z,53.10
2018-08-19T23:24:26.325Z,53.00
2018-08-19T23:26:54.860Z,53.00
2018-08-19T23:29:23.397Z,53.10
2018-08-19T23:31:51.941Z,53.00
2018-08-19T23:34:20.536Z,53.10
2018-08-19T23:36:49.101Z,53.10
2018-08-19T23:39:17.669Z,53.10
2018-08-19T23:41:46.225Z,53.10
2018-08-19T23:44:14.733Z,53.10
2018-08-19T23:46:43.296Z,53.10
2018-08-19T23:49:11.854Z,53.20
2018-08-19T23:51:40.418Z,53.20
2018-08-19T23:54:08.948Z,53.20
2018-08-19T23:56:37.485Z,53.20
2018-08-19T23:59:06.158Z,53.60
